sensor_id;sensor_type;location;lat;lon;timestamp;temperature;humidity
12746;DHT22;6437;53.686;10.030;2023-04-24T00:01:44;13.70;99.90
12746;DHT22;6437;53.686;10.030;2023-04-24T00:03:46;13.80;99.90
12746;DHT22;6437;53.686;10.030;2023-04-24T00:05:49;13.90;99.90
12746;DHT22;6437;53.686;10.030;2023-04-24T00:07:51;13.80;99.90
12746;DHT22;6437;53.686;10.030;2023-04-24T00:09:53;13.80;99.90
12746;DHT22;6437;53.686;10.030;2023-04-24T00:11:55;13.80;99.90
12746;DHT22;6437;53.686;10.030;2023-04-24T00:13:58;13.80;99.90
12746;DHT22;6437;53.686;10.030;2023-04-24T00:15:59;13.80;99.90
12746;DHT22;6437;53.686;10.030;2023-04-24T00:18:03;13.70;99.90
12746;DHT22;6437;53.686;10.030;2023-04-24T00:20:06;13.70;99.90
12746;DHT22;6437;53.686;10.030;2023-04-24T00:22:07;13.70;99.90
12746;DHT22;6437;53.686;10.030;2023-04-24T00:24:11;13.70;99.90
12746;DHT22;6437;53.686;10.030;2023-04-24T00:26:13;13.70;99.90
12746;DHT22;6437;53.686;10.030;2023-04-24T00:28:15;13.80;99.90
12746;DHT22;6437;53.686;10.030;2023-04-24T00:30:17;13.70;99.90
12746;DHT22;6437;53.686;10.030;2023-04-24T00:32:19;13.70;99.90
12746;DHT22;6437;53.686;10.030;2023-04-24T00:34:22;13.70;99.90
12746;DHT22;6437;53.686;10.030;2023-04-24T00:36:24;13.70;99.90
12746;DHT22;6437;53.686;10.030;2023-04-24T00:38:25;13.70;99.90
12746;DHT22;6437;53.686;10.030;2023-04-24T00:40:28;13.70;99.90
12746;DHT22;6437;53.686;10.030;2023-04-24T00:42:30;13.70;99.90
12746;DHT22;6437;53.686;10.030;2023-04-24T00:44:32;13.70;99.90
12746;DHT22;6437;53.686;10.030;2023-04-24T00:46:35;13.60;99.90
12746;DHT22;6437;53.686;10.030;2023-04-24T00:48:40;13.50;99.90
12746;DHT22;6437;53.686;10.030;2023-04-24T00:50:43;13.50;99.90
12746;DHT22;6437;53.686;10.030;2023-04-24T00:52:45;13.50;99.90
12746;DHT22;6437;53.686;10.030;2023-04-24T00:54:47;13.60;99.90
12746;DHT22;6437;53.686;10.030;2023-04-24T00:56:49;13.50;99.90
12746;DHT22;6437;53.686;10.030;2023-04-24T00:58:51;13.50;99.90
12746;DHT22;6437;53.686;10.030;2023-04-24T01:00:54;13.50;99.90
12746;DHT22;6437;53.686;10.030;2023-04-24T01:02:58;13.50;99.90
12746;DHT22;6437;53.686;10.030;2023-04-24T01:05:00;13.50;99.90
12746;DHT22;6437;53.686;10.030;2023-04-24T01:07:04;13.50;99.90
12746;DHT22;6437;53.686;10.030;2023-04-24T01:09:10;13.50;99.90
12746;DHT22;6437;53.686;10.030;2023-04-24T01:11:13;13.50;99.90
12746;DHT22;6437;53.686;10.030;2023-04-24T01:13:15;13.50;99.90
12746;DHT22;6437;53.686;10.030;2023-04-24T01:15:16;13.50;99.90
12746;DHT22;6437;53.686;10.030;2023-04-24T01:17:18;13.50;99.90
12746;DHT22;6437;53.686;10.030;2023-04-24T01:19:20;13.40;99.90
12746;DHT22;6437;53.686;10.030;2023-04-24T01:21:23;13.40;99.90
12746;DHT22;6437;53.686;10.030;2023-04-24T01:23:30;13.30;99.90
12746;DHT22;6437;53.686;10.030;2023-04-24T01:25:32;13.40;99.90
12746;DHT22;6437;53.686;10.030;2023-04-24T01:27:34;13.40;99.90
12746;DHT22;6437;53.686;10.030;2023-04-24T01:29:40;13.40;99.90
12746;DHT22;6437;53.686;10.030;2023-04-24T01:31:42;13.20;99.90
12746;DHT22;6437;53.686;10.030;2023-04-24T01:33:44;13.40;99.90
12746;DHT22;6437;53.686;10.030;2023-04-24T01:35:47;13.40;99.90
12746;DHT22;6437;53.686;10.030;2023-04-24T01:37:49;13.30;99.90
12746;DHT22;6437;53.686;10.030;2023-04-24T01:39:52;13.30;99.90
12746;DHT22;6437;53.686;10.030;2023-04-24T01:41:55;13.40;99.90
12746;DHT22;6437;53.686;10.030;2023-04-24T01:43:57;13.40;99.90
12746;DHT22;6437;53.686;10.030;2023-04-24T01:45:59;13.40;99.90
12746;DHT22;6437;53.686;10.030;2023-04-24T01:48:01;13.40;99.90
12746;DHT22;6437;53.686;10.030;2023-04-24T01:50:04;13.40;99.90
12746;DHT22;6437;53.686;10.030;2023-04-24T01:52:06;13.40;99.90
12746;DHT22;6437;53.686;10.030;2023-04-24T01:54:08;13.40;99.90
12746;DHT22;6437;53.686;10.030;2023-04-24T01:56:11;13.40;99.90
12746;DHT22;6437;53.686;10.030;2023-04-24T01:58:13;13.40;99.90
12746;DHT22;6437;53.686;10.030;2023-04-24T02:00:15;13.30;99.90
12746;DHT22;6437;53.686;10.030;2023-04-24T02:02:17;13.30;99.90
12746;DHT22;6437;53.686;10.030;2023-04-24T02:04:18;13.30;99.90
12746;DHT22;6437;53.686;10.030;2023-04-24T02:06:20;13.30;99.90
12746;DHT22;6437;53.686;10.030;2023-04-24T02:08:22;13.30;99.90
12746;DHT22;6437;53.686;10.030;2023-04-24T02:10:24;13.30;99.90
12746;DHT22;6437;53.686;10.030;2023-04-24T02:12:27;13.30;99.90
12746;DHT22;6437;53.686;10.030;2023-04-24T02:14:29;13.30;99.90
12746;DHT22;6437;53.686;10.030;2023-04-24T02:16:31;13.20;99.90
12746;DHT22;6437;53.686;10.030;2023-04-24T02:18:33;13.20;99.90
12746;DHT22;6437;53.686;10.030;2023-04-24T02:20:36;13.10;99.90
12746;DHT22;6437;53.686;10.030;2023-04-24T02:22:39;13.20;99.90
12746;DHT22;6437;53.686;10.030;2023-04-24T02:24:41;13.20;99.90
12746;DHT22;6437;53.686;10.030;2023-04-24T02:26:43;13.20;99.90
12746;DHT22;6437;53.686;10.030;2023-04-24T02:28:46;13.20;99.90
12746;DHT22;6437;53.686;10.030;2023-04-24T02:30:47;13.20;99.90
12746;DHT22;6437;53.686;10.030;2023-04-24T02:32:49;13.20;99.90
12746;DHT22;6437;53.686;10.030;2023-04-24T02:34:51;13.20;99.90
12746;DHT22;6437;53.686;10.030;2023-04-24T02:36:53;13.10;99.90
12746;DHT22;6437;53.686;10.030;2023-04-24T02:38:55;13.00;99.90
12746;DHT22;6437;53.686;10.030;2023-04-24T02:40:57;13.00;99.90
12746;DHT22;6437;53.686;10.030;2023-04-24T02:42:58;13.10;99.90
12746;DHT22;6437;53.686;10.030;2023-04-24T02:45:02;13.00;99.90
12746;DHT22;6437;53.686;10.030;2023-04-24T02:47:04;13.00;99.90
12746;DHT22;6437;53.686;10.030;2023-04-24T02:49:06;12.90;99.90
12746;DHT22;6437;53.686;10.030;2023-04-24T02:51:07;13.00;99.90
12746;DHT22;6437;53.686;10.030;2023-04-24T02:53:10;13.00;99.90
12746;DHT22;6437;53.686;10.030;2023-04-24T02:55:12;13.00;99.90
12746;DHT22;6437;53.686;10.030;2023-04-24T02:57:14;12.90;99.90
12746;DHT22;6437;53.686;10.030;2023-04-24T02:59:15;12.90;99.90
12746;DHT22;6437;53.686;10.030;2023-04-24T03:01:19;12.90;99.90
12746;DHT22;6437;53.686;10.030;2023-04-24T03:03:21;12.80;99.90
12746;DHT22;6437;53.686;10.030;2023-04-24T03:05:22;12.90;99.90
12746;DHT22;6437;53.686;10.030;2023-04-24T03:07:24;12.90;99.90
12746;DHT22;6437;53.686;10.030;2023-04-24T03:09:26;12.80;99.90
12746;DHT22;6437;53.686;10.030;2023-04-24T03:11:28;12.80;99.90
12746;DHT22;6437;53.686;10.030;2023-04-24T03:13:30;12.80;99.90
12746;DHT22;6437;53.686;10.030;2023-04-24T03:15:32;12.80;99.90
12746;DHT22;6437;53.686;10.030;2023-04-24T03:17:35;12.80;99.90
12746;DHT22;6437;53.686;10.030;2023-04-24T03:19:38;12.80;99.90
12746;DHT22;6437;53.686;10.030;2023-04-24T03:21:40;12.70;99.90
12746;DHT22;6437;53.686;10.030;2023-04-24T03:23:42;12.80;99.90
12746;DHT22;6437;53.686;10.030;2023-04-24T03:25:44;12.80;99.90
12746;DHT22;6437;53.686;10.030;2023-04-24T03:27:46;12.80;99.90
12746;DHT22;6437;53.686;10.030;2023-04-24T03:29:48;12.70;99.90
12746;DHT22;6437;53.686;10.030;2023-04-24T03:31:52;12.80;99.90
12746;DHT22;6437;53.686;10.030;2023-04-24T03:33:55;12.70;99.90
12746;DHT22;6437;53.686;10.030;2023-04-24T03:35:57;12.70;99.90
12746;DHT22;6437;53.686;10.030;2023-04-24T03:37:59;12.70;99.90
12746;DHT22;6437;53.686;10.030;2023-04-24T03:40:01;12.80;99.90
12746;DHT22;6437;53.686;10.030;2023-04-24T03:42:03;12.70;99.90
12746;DHT22;6437;53.686;10.030;2023-04-24T03:44:05;12.70;99.90
12746;DHT22;6437;53.686;10.030;2023-04-24T03:46:06;12.70;99.90
12746;DHT22;6437;53.686;10.030;2023-04-24T03:48:09;12.70;99.90
12746;DHT22;6437;53.686;10.030;2023-04-24T03:50:12;12.70;99.90
12746;DHT22;6437;53.686;10.030;2023-04-24T03:52:15;12.70;99.90
12746;DHT22;6437;53.686;10.030;2023-04-24T03:54:17;12.60;99.90
12746;DHT22;6437;53.686;10.030;2023-04-24T03:56:19;12.60;99.90
12746;DHT22;6437;53.686;10.030;2023-04-24T03:58:21;12.60;99.90
12746;DHT22;6437;53.686;10.030;2023-04-24T04:00:22;12.60;99.90
12746;DHT22;6437;53.686;10.030;2023-04-24T04:02:24;12.60;99.90
12746;DHT22;6437;53.686;10.030;2023-04-24T04:04:26;12.50;99.90
12746;DHT22;6437;53.686;10.030;2023-04-24T04:06:29;12.40;99.90
12746;DHT22;6437;53.686;10.030;2023-04-24T04:08:32;12.50;99.90
12746;DHT22;6437;53.686;10.030;2023-04-24T04:10:34;12.40;99.90
12746;DHT22;6437;53.686;10.030;2023-04-24T04:12:35;12.40;99.90
12746;DHT22;6437;53.686;10.030;2023-04-24T04:14:40;12.40;99.90
12746;DHT22;6437;53.686;10.030;2023-04-24T04:16:42;12.50;99.90
12746;DHT22;6437;53.686;10.030;2023-04-24T04:18:44;12.40;99.90
12746;DHT22;6437;53.686;10.030;2023-04-24T04:20:46;12.40;99.90
12746;DHT22;6437;53.686;10.030;2023-04-24T04:22:49;12.40;99.90
12746;DHT22;6437;53.686;10.030;2023-04-24T04:24:51;12.40;99.90
12746;DHT22;6437;53.686;10.030;2023-04-24T04:26:54;12.40;99.90
12746;DHT22;6437;53.686;10.030;2023-04-24T04:28:58;12.30;99.90
12746;DHT22;6437;53.686;10.030;2023-04-24T04:31:01;12.30;99.90
12746;DHT22;6437;53.686;10.030;2023-04-24T04:33:03;12.30;99.90
12746;DHT22;6437;53.686;10.030;2023-04-24T04:35:05;12.30;99.90
12746;DHT22;6437;53.686;10.030;2023-04-24T04:37:07;12.30;99.90
12746;DHT22;6437;53.686;10.030;2023-04-24T04:39:10;12.30;99.90
12746;DHT22;6437;53.686;10.030;2023-04-24T04:41:14;12.20;99.90
12746;DHT22;6437;53.686;10.030;2023-04-24T04:43:17;12.20;99.90
12746;DHT22;6437;53.686;10.030;2023-04-24T04:45:19;12.20;99.90
12746;DHT22;6437;53.686;10.030;2023-04-24T04:47:21;12.20;99.90
12746;DHT22;6437;53.686;10.030;2023-04-24T04:49:24;12.30;99.90
12746;DHT22;6437;53.686;10.030;2023-04-24T04:51:28;12.20;99.90
12746;DHT22;6437;53.686;10.030;2023-04-24T04:53:31;12.20;99.90
12746;DHT22;6437;53.686;10.030;2023-04-24T04:55:34;12.30;99.90
12746;DHT22;6437;53.686;10.030;2023-04-24T04:57:36;12.30;99.90
12746;DHT22;6437;53.686;10.030;2023-04-24T04:59:44;12.30;99.90
12746;DHT22;6437;53.686;10.030;2023-04-24T05:01:46;12.30;99.90
12746;DHT22;6437;53.686;10.030;2023-04-24T05:03:48;12.30;99.90
12746;DHT22;6437;53.686;10.030;2023-04-24T05:05:49;12.40;99.90
12746;DHT22;6437;53.686;10.030;2023-04-24T05:07:51;12.40;99.90
12746;DHT22;6437;53.686;10.030;2023-04-24T05:09:53;12.40;99.90
12746;DHT22;6437;53.686;10.030;2023-04-24T05:11:56;12.40;99.90
12746;DHT22;6437;53.686;10.030;2023-04-24T05:13:58;12.50;99.90
12746;DHT22;6437;53.686;10.030;2023-04-24T05:16:00;12.50;99.90
12746;DHT22;6437;53.686;10.030;2023-04-24T05:18:02;12.50;99.90
12746;DHT22;6437;53.686;10.030;2023-04-24T05:20:04;12.50;99.90
12746;DHT22;6437;53.686;10.030;2023-04-24T05:22:07;12.50;99.90
12746;DHT22;6437;53.686;10.030;2023-04-24T05:24:10;12.50;99.90
12746;DHT22;6437;53.686;10.030;2023-04-24T05:26:12;12.50;99.90
12746;DHT22;6437;53.686;10.030;2023-04-24T05:28:16;12.50;99.90
12746;DHT22;6437;53.686;10.030;2023-04-24T05:30:17;12.60;99.90
12746;DHT22;6437;53.686;10.030;2023-04-24T05:32:19;12.60;99.90
12746;DHT22;6437;53.686;10.030;2023-04-24T05:34:21;12.70;99.90
12746;DHT22;6437;53.686;10.030;2023-04-24T05:36:23;12.70;99.90
12746;DHT22;6437;53.686;10.030;2023-04-24T05:38:25;12.70;99.90
12746;DHT22;6437;53.686;10.030;2023-04-24T05:40:27;12.70;99.90
12746;DHT22;6437;53.686;10.030;2023-04-24T05:42:29;12.70;99.90
12746;DHT22;6437;53.686;10.030;2023-04-24T05:44:32;12.80;99.90
12746;DHT22;6437;53.686;10.030;2023-04-24T05:46:34;12.80;99.90
12746;DHT22;6437;53.686;10.030;2023-04-24T05:48:35;12.80;99.90
12746;DHT22;6437;53.686;10.030;2023-04-24T05:50:39;12.80;99.90
12746;DHT22;6437;53.686;10.030;2023-04-24T05:52:41;12.90;99.90
12746;DHT22;6437;53.686;10.030;2023-04-24T05:54:43;12.90;99.90
12746;DHT22;6437;53.686;10.030;2023-04-24T05:56:45;12.90;99.90
12746;DHT22;6437;53.686;10.030;2023-04-24T05:58:47;13.00;99.90
12746;DHT22;6437;53.686;10.030;2023-04-24T06:00:50;13.00;99.90
12746;DHT22;6437;53.686;10.030;2023-04-24T06:02:52;13.00;99.90
12746;DHT22;6437;53.686;10.030;2023-04-24T06:04:54;13.00;99.90
12746;DHT22;6437;53.686;10.030;2023-04-24T06:06:56;13.00;99.90
12746;DHT22;6437;53.686;10.030;2023-04-24T06:08:58;12.90;99.90
12746;DHT22;6437;53.686;10.030;2023-04-24T06:11:00;12.90;99.90
12746;DHT22;6437;53.686;10.030;2023-04-24T06:13:01;12.90;99.90
12746;DHT22;6437;53.686;10.030;2023-04-24T06:15:04;12.90;99.90
12746;DHT22;6437;53.686;10.030;2023-04-24T06:17:07;12.90;99.90
12746;DHT22;6437;53.686;10.030;2023-04-24T06:19:09;12.90;99.90
12746;DHT22;6437;53.686;10.030;2023-04-24T06:21:11;12.90;99.90
12746;DHT22;6437;53.686;10.030;2023-04-24T06:23:13;12.90;99.90
12746;DHT22;6437;53.686;10.030;2023-04-24T06:25:14;13.00;99.90
12746;DHT22;6437;53.686;10.030;2023-04-24T06:27:16;13.00;99.90
12746;DHT22;6437;53.686;10.030;2023-04-24T06:29:18;13.00;99.90
12746;DHT22;6437;53.686;10.030;2023-04-24T06:31:20;13.00;99.90
12746;DHT22;6437;53.686;10.030;2023-04-24T06:33:23;13.00;99.90
12746;DHT22;6437;53.686;10.030;2023-04-24T06:35:25;13.10;99.90
12746;DHT22;6437;53.686;10.030;2023-04-24T06:37:27;13.10;99.90
12746;DHT22;6437;53.686;10.030;2023-04-24T06:39:29;13.10;99.90
12746;DHT22;6437;53.686;10.030;2023-04-24T06:41:30;13.20;99.90
12746;DHT22;6437;53.686;10.030;2023-04-24T06:43:33;13.20;99.90
12746;DHT22;6437;53.686;10.030;2023-04-24T06:45:34;13.20;99.90
12746;DHT22;6437;53.686;10.030;2023-04-24T06:47:36;13.20;99.90
12746;DHT22;6437;53.686;10.030;2023-04-24T06:49:44;13.20;99.90
12746;DHT22;6437;53.686;10.030;2023-04-24T06:51:46;13.20;99.90
12746;DHT22;6437;53.686;10.030;2023-04-24T06:53:47;13.20;99.90
12746;DHT22;6437;53.686;10.030;2023-04-24T06:55:50;13.30;99.90
12746;DHT22;6437;53.686;10.030;2023-04-24T06:57:52;13.30;99.90
12746;DHT22;6437;53.686;10.030;2023-04-24T06:59:54;13.30;99.90
12746;DHT22;6437;53.686;10.030;2023-04-24T07:01:56;13.40;99.90
12746;DHT22;6437;53.686;10.030;2023-04-24T07:03:57;13.40;99.90
12746;DHT22;6437;53.686;10.030;2023-04-24T07:06:01;13.50;99.90
12746;DHT22;6437;53.686;10.030;2023-04-24T07:08:03;13.50;99.90
12746;DHT22;6437;53.686;10.030;2023-04-24T07:10:08;13.50;99.90
12746;DHT22;6437;53.686;10.030;2023-04-24T07:12:10;13.60;99.90
12746;DHT22;6437;53.686;10.030;2023-04-24T07:14:11;13.60;99.90
12746;DHT22;6437;53.686;10.030;2023-04-24T07:16:13;13.70;99.90
12746;DHT22;6437;53.686;10.030;2023-04-24T07:18:15;13.70;99.90
12746;DHT22;6437;53.686;10.030;2023-04-24T07:20:17;13.80;99.90
12746;DHT22;6437;53.686;10.030;2023-04-24T07:22:20;13.80;99.90
12746;DHT22;6437;53.686;10.030;2023-04-24T07:24:22;13.80;99.90
12746;DHT22;6437;53.686;10.030;2023-04-24T07:26:25;13.80;99.90
12746;DHT22;6437;53.686;10.030;2023-04-24T07:28:27;13.80;99.90
12746;DHT22;6437;53.686;10.030;2023-04-24T07:30:31;13.90;99.90
12746;DHT22;6437;53.686;10.030;2023-04-24T07:32:33;13.80;99.90
12746;DHT22;6437;53.686;10.030;2023-04-24T07:34:35;13.80;99.90
12746;DHT22;6437;53.686;10.030;2023-04-24T07:36:37;13.90;99.90
12746;DHT22;6437;53.686;10.030;2023-04-24T07:38:42;13.90;99.90
12746;DHT22;6437;53.686;10.030;2023-04-24T07:40:44;13.80;99.90
12746;DHT22;6437;53.686;10.030;2023-04-24T07:42:46;13.80;99.90
12746;DHT22;6437;53.686;10.030;2023-04-24T07:44:49;13.80;99.90
12746;DHT22;6437;53.686;10.030;2023-04-24T07:46:51;13.90;99.90
12746;DHT22;6437;53.686;10.030;2023-04-24T07:48:53;13.90;99.90
12746;DHT22;6437;53.686;10.030;2023-04-24T07:50:55;13.90;99.90
12746;DHT22;6437;53.686;10.030;2023-04-24T07:52:57;13.90;99.90
12746;DHT22;6437;53.686;10.030;2023-04-24T07:55:00;14.00;99.90
12746;DHT22;6437;53.686;10.030;2023-04-24T07:57:03;14.10;99.90
12746;DHT22;6437;53.686;10.030;2023-04-24T07:59:07;14.10;99.90
12746;DHT22;6437;53.686;10.030;2023-04-24T08:01:10;14.10;99.90
12746;DHT22;6437;53.686;10.030;2023-04-24T08:03:12;14.10;99.90
12746;DHT22;6437;53.686;10.030;2023-04-24T08:05:14;14.10;99.90
12746;DHT22;6437;53.686;10.030;2023-04-24T08:07:15;14.10;99.90
12746;DHT22;6437;53.686;10.030;2023-04-24T08:09:17;14.10;99.90
12746;DHT22;6437;53.686;10.030;2023-04-24T08:11:20;14.10;99.90
12746;DHT22;6437;53.686;10.030;2023-04-24T08:13:22;14.10;99.90
12746;DHT22;6437;53.686;10.030;2023-04-24T08:15:24;14.10;99.90
12746;DHT22;6437;53.686;10.030;2023-04-24T08:17:26;14.00;99.90
12746;DHT22;6437;53.686;10.030;2023-04-24T08:19:28;14.00;99.90
12746;DHT22;6437;53.686;10.030;2023-04-24T08:21:29;13.90;99.90
12746;DHT22;6437;53.686;10.030;2023-04-24T08:23:32;14.00;99.90
12746;DHT22;6437;53.686;10.030;2023-04-24T08:25:34;14.00;99.90
12746;DHT22;6437;53.686;10.030;2023-04-24T08:27:37;14.00;99.90
12746;DHT22;6437;53.686;10.030;2023-04-24T08:29:39;14.10;99.90
12746;DHT22;6437;53.686;10.030;2023-04-24T08:31:42;14.10;99.90
12746;DHT22;6437;53.686;10.030;2023-04-24T08:33:44;14.10;99.90
12746;DHT22;6437;53.686;10.030;2023-04-24T08:35:46;14.20;99.90
12746;DHT22;6437;53.686;10.030;2023-04-24T08:37:48;14.20;99.90
12746;DHT22;6437;53.686;10.030;2023-04-24T08:39:50;14.10;99.90
12746;DHT22;6437;53.686;10.030;2023-04-24T08:41:52;14.10;99.90
12746;DHT22;6437;53.686;10.030;2023-04-24T08:43:56;14.00;99.90
12746;DHT22;6437;53.686;10.030;2023-04-24T08:45:59;14.00;99.90
12746;DHT22;6437;53.686;10.030;2023-04-24T08:48:01;14.10;99.90
12746;DHT22;6437;53.686;10.030;2023-04-24T08:50:04;14.10;99.90
12746;DHT22;6437;53.686;10.030;2023-04-24T08:52:08;14.00;99.90
12746;DHT22;6437;53.686;10.030;2023-04-24T08:54:10;14.00;99.90
12746;DHT22;6437;53.686;10.030;2023-04-24T08:56:13;14.10;99.90
12746;DHT22;6437;53.686;10.030;2023-04-24T08:58:16;14.10;99.90
12746;DHT22;6437;53.686;10.030;2023-04-24T09:00:21;14.10;99.90
12746;DHT22;6437;53.686;10.030;2023-04-24T09:02:23;14.10;99.90
12746;DHT22;6437;53.686;10.030;2023-04-24T09:04:25;14.10;99.90
12746;DHT22;6437;53.686;10.030;2023-04-24T09:06:27;14.00;99.90
12746;DHT22;6437;53.686;10.030;2023-04-24T09:08:31;14.00;99.90
12746;DHT22;6437;53.686;10.030;2023-04-24T09:10:35;14.00;99.90
12746;DHT22;6437;53.686;10.030;2023-04-24T09:12:37;14.00;99.90
12746;DHT22;6437;53.686;10.030;2023-04-24T09:14:38;14.10;99.90
12746;DHT22;6437;53.686;10.030;2023-04-24T09:16:47;14.00;99.90
12746;DHT22;6437;53.686;10.030;2023-04-24T09:18:49;14.00;99.90
12746;DHT22;6437;53.686;10.030;2023-04-24T09:21:01;14.00;99.90
12746;DHT22;6437;53.686;10.030;2023-04-24T09:23:03;14.00;99.90
12746;DHT22;6437;53.686;10.030;2023-04-24T09:25:06;14.00;99.90
12746;DHT22;6437;53.686;10.030;2023-04-24T09:27:11;13.90;99.90
12746;DHT22;6437;53.686;10.030;2023-04-24T09:29:17;14.00;99.90
12746;DHT22;6437;53.686;10.030;2023-04-24T09:31:19;14.00;99.90
12746;DHT22;6437;53.686;10.030;2023-04-24T09:33:24;14.10;99.90
12746;DHT22;6437;53.686;10.030;2023-04-24T09:35:26;14.10;99.90
12746;DHT22;6437;53.686;10.030;2023-04-24T09:37:28;14.10;99.90
12746;DHT22;6437;53.686;10.030;2023-04-24T09:39:30;14.20;99.90
12746;DHT22;6437;53.686;10.030;2023-04-24T09:41:32;14.10;99.90
12746;DHT22;6437;53.686;10.030;2023-04-24T09:43:35;14.20;99.90
12746;DHT22;6437;53.686;10.030;2023-04-24T09:45:38;14.20;99.90
12746;DHT22;6437;53.686;10.030;2023-04-24T09:47:42;14.10;99.90
12746;DHT22;6437;53.686;10.030;2023-04-24T09:49:48;14.10;99.90
12746;DHT22;6437;53.686;10.030;2023-04-24T09:51:50;14.10;99.90
12746;DHT22;6437;53.686;10.030;2023-04-24T09:53:52;14.10;99.90
12746;DHT22;6437;53.686;10.030;2023-04-24T09:55:54;14.10;99.90
12746;DHT22;6437;53.686;10.030;2023-04-24T09:57:57;14.10;99.90
12746;DHT22;6437;53.686;10.030;2023-04-24T10:00:00;14.20;99.90
12746;DHT22;6437;53.686;10.030;2023-04-24T10:02:02;14.20;99.90
12746;DHT22;6437;53.686;10.030;2023-04-24T10:04:04;14.20;99.90
12746;DHT22;6437;53.686;10.030;2023-04-24T10:06:12;14.20;99.90
12746;DHT22;6437;53.686;10.030;2023-04-24T10:08:14;14.10;99.90
12746;DHT22;6437;53.686;10.030;2023-04-24T10:10:16;14.20;99.90
12746;DHT22;6437;53.686;10.030;2023-04-24T10:12:18;14.20;99.90
12746;DHT22;6437;53.686;10.030;2023-04-24T10:14:22;14.20;99.90
12746;DHT22;6437;53.686;10.030;2023-04-24T10:16:24;14.20;99.90
12746;DHT22;6437;53.686;10.030;2023-04-24T10:18:27;14.10;99.90
12746;DHT22;6437;53.686;10.030;2023-04-24T10:20:29;14.10;99.90
12746;DHT22;6437;53.686;10.030;2023-04-24T10:22:32;14.10;99.90
12746;DHT22;6437;53.686;10.030;2023-04-24T10:24:35;14.00;99.90
12746;DHT22;6437;53.686;10.030;2023-04-24T10:26:38;14.00;99.90
12746;DHT22;6437;53.686;10.030;2023-04-24T10:28:43;14.00;99.90
12746;DHT22;6437;53.686;10.030;2023-04-24T10:30:46;14.00;99.90
12746;DHT22;6437;53.686;10.030;2023-04-24T10:32:49;14.00;99.90
12746;DHT22;6437;53.686;10.030;2023-04-24T10:34:50;14.10;99.90
12746;DHT22;6437;53.686;10.030;2023-04-24T10:36:53;14.10;99.90
12746;DHT22;6437;53.686;10.030;2023-04-24T10:38:59;14.10;99.90
12746;DHT22;6437;53.686;10.030;2023-04-24T10:41:08;14.10;99.90
12746;DHT22;6437;53.686;10.030;2023-04-24T10:43:17;14.10;99.90
12746;DHT22;6437;53.686;10.030;2023-04-24T10:45:20;14.10;99.90
12746;DHT22;6437;53.686;10.030;2023-04-24T10:47:22;14.10;99.90
12746;DHT22;6437;53.686;10.030;2023-04-24T10:49:29;14.10;99.90
12746;DHT22;6437;53.686;10.030;2023-04-24T10:51:45;14.10;99.90
12746;DHT22;6437;53.686;10.030;2023-04-24T10:53:50;14.20;99.90
12746;DHT22;6437;53.686;10.030;2023-04-24T10:55:58;14.20;99.90
12746;DHT22;6437;53.686;10.030;2023-04-24T10:58:03;14.20;99.90
12746;DHT22;6437;53.686;10.030;2023-04-24T11:00:21;14.20;99.90
12746;DHT22;6437;53.686;10.030;2023-04-24T11:02:36;14.20;99.90
12746;DHT22;6437;53.686;10.030;2023-04-24T11:04:38;14.20;99.90
12746;DHT22;6437;53.686;10.030;2023-04-24T11:06:40;14.20;99.90
12746;DHT22;6437;53.686;10.030;2023-04-24T11:08:45;14.20;99.90
12746;DHT22;6437;53.686;10.030;2023-04-24T11:10:54;14.20;99.90
12746;DHT22;6437;53.686;10.030;2023-04-24T11:12:57;14.20;99.90
12746;DHT22;6437;53.686;10.030;2023-04-24T11:15:00;14.20;99.90
12746;DHT22;6437;53.686;10.030;2023-04-24T11:17:02;14.30;99.90
12746;DHT22;6437;53.686;10.030;2023-04-24T11:19:06;14.30;99.90
12746;DHT22;6437;53.686;10.030;2023-04-24T11:21:11;14.40;99.90
12746;DHT22;6437;53.686;10.030;2023-04-24T11:23:13;14.40;99.90
12746;DHT22;6437;53.686;10.030;2023-04-24T11:25:16;14.40;99.90
12746;DHT22;6437;53.686;10.030;2023-04-24T11:27:19;14.50;99.90
12746;DHT22;6437;53.686;10.030;2023-04-24T11:29:22;14.50;99.90
12746;DHT22;6437;53.686;10.030;2023-04-24T11:31:37;14.50;99.90
12746;DHT22;6437;53.686;10.030;2023-04-24T11:33:39;14.60;99.90
12746;DHT22;6437;53.686;10.030;2023-04-24T11:35:42;14.60;99.90
12746;DHT22;6437;53.686;10.030;2023-04-24T11:37:46;14.60;99.90
12746;DHT22;6437;53.686;10.030;2023-04-24T11:39:51;14.60;99.90
12746;DHT22;6437;53.686;10.030;2023-04-24T11:41:53;14.60;99.90
12746;DHT22;6437;53.686;10.030;2023-04-24T11:43:55;14.60;99.90
12746;DHT22;6437;53.686;10.030;2023-04-24T11:45:59;14.60;99.90
12746;DHT22;6437;53.686;10.030;2023-04-24T11:48:02;14.60;99.90
12746;DHT22;6437;53.686;10.030;2023-04-24T11:50:06;14.60;99.90
12746;DHT22;6437;53.686;10.030;2023-04-24T11:52:08;14.70;99.90
12746;DHT22;6437;53.686;10.030;2023-04-24T11:54:11;14.70;99.90
12746;DHT22;6437;53.686;10.030;2023-04-24T11:56:17;14.70;99.90
12746;DHT22;6437;53.686;10.030;2023-04-24T11:58:20;14.70;99.90
12746;DHT22;6437;53.686;10.030;2023-04-24T12:00:25;14.70;99.90
12746;DHT22;6437;53.686;10.030;2023-04-24T12:02:28;14.70;99.90
12746;DHT22;6437;53.686;10.030;2023-04-24T12:04:38;14.70;99.90
12746;DHT22;6437;53.686;10.030;2023-04-24T12:06:58;14.60;99.90
12746;DHT22;6437;53.686;10.030;2023-04-24T12:09:00;14.70;99.90
12746;DHT22;6437;53.686;10.030;2023-04-24T12:11:03;14.60;99.90
12746;DHT22;6437;53.686;10.030;2023-04-24T12:13:09;14.60;99.90
12746;DHT22;6437;53.686;10.030;2023-04-24T12:15:11;14.50;99.90
12746;DHT22;6437;53.686;10.030;2023-04-24T12:17:13;14.60;99.90
12746;DHT22;6437;53.686;10.030;2023-04-24T12:19:20;14.60;99.90
12746;DHT22;6437;53.686;10.030;2023-04-24T12:21:22;14.60;99.90
12746;DHT22;6437;53.686;10.030;2023-04-24T12:23:36;14.50;99.90
12746;DHT22;6437;53.686;10.030;2023-04-24T12:25:38;14.60;99.90
12746;DHT22;6437;53.686;10.030;2023-04-24T12:27:42;14.50;99.90
12746;DHT22;6437;53.686;10.030;2023-04-24T12:29:51;14.50;99.90
12746;DHT22;6437;53.686;10.030;2023-04-24T12:31:54;14.50;99.90
12746;DHT22;6437;53.686;10.030;2023-04-24T12:33:56;14.50;99.90
12746;DHT22;6437;53.686;10.030;2023-04-24T12:35:59;14.50;99.90
12746;DHT22;6437;53.686;10.030;2023-04-24T12:38:10;14.40;99.90
12746;DHT22;6437;53.686;10.030;2023-04-24T12:40:14;14.50;99.90
12746;DHT22;6437;53.686;10.030;2023-04-24T12:42:25;14.40;99.90
12746;DHT22;6437;53.686;10.030;2023-04-24T12:44:31;14.50;99.90
12746;DHT22;6437;53.686;10.030;2023-04-24T12:46:34;14.40;99.90
12746;DHT22;6437;53.686;10.030;2023-04-24T12:48:36;14.40;99.90
12746;DHT22;6437;53.686;10.030;2023-04-24T12:50:38;14.30;99.90
12746;DHT22;6437;53.686;10.030;2023-04-24T12:52:42;14.20;99.90
12746;DHT22;6437;53.686;10.030;2023-04-24T12:54:44;14.20;99.90
12746;DHT22;6437;53.686;10.030;2023-04-24T12:56:46;14.10;99.90